sensor_id;sensor_type;location;lat;lon;timestamp;pressure;altitude;pressure_sealevel;temperature;humidity
8697;BME280;4385;48.848;8.924;2023-04-01T00:01:53;96002.06;;;19.68;100.00
8697;BME280;4385;48.848;8.924;2023-04-01T00:04:19;96008.16;;;19.66;100.00
8697;BME280;4385;48.848;8.924;2023-04-01T00:06:45;96002.28;;;19.64;100.00
8697;BME280;4385;48.848;8.924;2023-04-01T00:09:12;96006.66;;;19.62;100.00
8697;BME280;4385;48.848;8.924;2023-04-01T00:11:37;96012.66;;;19.61;100.00
8697;BME280;4385;48.848;8.924;2023-04-01T00:14:03;96014.47;;;19.59;100.00
8697;BME280;4385;48.848;8.924;2023-04-01T00:16:29;96016.28;;;19.56;100.00
8697;BME280;4385;48.848;8.924;2023-04-01T00:18:54;96009.59;;;19.54;100.00
8697;BME280;4385;48.848;8.924;2023-04-01T00:21:21;96007.19;;;19.51;100.00
8697;BME280;4385;48.848;8.924;2023-04-01T00:23:47;96008.94;;;19.50;100.00
8697;BME280;4385;48.848;8.924;2023-04-01T00:26:13;96010.81;;;19.47;100.00
8697;BME280;4385;48.848;8.924;2023-04-01T00:28:40;96003.97;;;19.47;100.00
8697;BME280;4385;48.848;8.924;2023-04-01T00:31:08;96013.44;;;19.45;100.00
8697;BME280;4385;48.848;8.924;2023-04-01T00:33:34;96017.72;;;19.44;100.00
8697;BME280;4385;48.848;8.924;2023-04-01T00:36:14;96012.75;;;19.41;100.00
8697;BME280;4385;48.848;8.924;2023-04-01T00:38:40;96027.28;;;19.41;100.00
8697;BME280;4385;48.848;8.924;2023-04-01T00:41:07;96032.38;;;19.41;100.00
8697;BME280;4385;48.848;8.924;2023-04-01T00:43:34;96020.50;;;19.40;100.00
8697;BME280;4385;48.848;8.924;2023-04-01T00:46:00;96019.69;;;19.39;100.00
8697;BME280;4385;48.848;8.924;2023-04-01T00:48:36;96023.97;;;19.39;100.00
8697;BME280;4385;48.848;8.924;2023-04-01T00:51:08;96018.00;;;19.38;100.00
8697;BME280;4385;48.848;8.924;2023-04-01T00:53:38;96024.03;;;19.37;100.00
8697;BME280;4385;48.848;8.924;2023-04-01T00:56:17;96010.44;;;19.37;100.00
8697;BME280;4385;48.848;8.924;2023-04-01T00:58:46;96012.25;;;19.35;100.00
8697;BME280;4385;48.848;8.924;2023-04-01T01:01:13;96014.03;;;19.33;100.00
8697;BME280;4385;48.848;8.924;2023-04-01T01:03:38;96014.19;;;19.29;100.00
8697;BME280;4385;48.848;8.924;2023-04-01T01:06:25;96010.06;;;19.27;100.00
8697;BME280;4385;48.848;8.924;2023-04-01T01:09:14;96012.69;;;19.25;100.00
8697;BME280;4385;48.848;8.924;2023-04-01T01:14:27;96015.41;;;19.22;100.00
8697;BME280;4385;48.848;8.924;2023-04-01T01:17:04;96017.19;;;19.20;100.00
8697;BME280;4385;48.848;8.924;2023-04-01T01:19:58;96017.19;;;19.20;100.00
8697;BME280;4385;48.848;8.924;2023-04-01T01:23:17;96013.72;;;19.21;100.00
8697;BME280;4385;48.848;8.924;2023-04-01T01:28:37;96009.38;;;19.23;100.00
8697;BME280;4385;48.848;8.924;2023-04-01T01:31:25;96005.94;;;19.24;100.00
8697;BME280;4385;48.848;8.924;2023-04-01T01:36:32;96016.91;;;19.26;100.00
8697;BME280;4385;48.848;8.924;2023-04-01T01:39:03;96010.88;;;19.27;100.00
8697;BME280;4385;48.848;8.924;2023-04-01T01:41:30;96007.53;;;19.27;100.00
8697;BME280;4385;48.848;8.924;2023-04-01T01:43:58;96018.53;;;19.27;100.00
8697;BME280;4385;48.848;8.924;2023-04-01T01:46:26;96014.34;;;19.26;100.00
8697;BME280;4385;48.848;8.924;2023-04-01T01:48:54;96013.50;;;19.26;100.00
8697;BME280;4385;48.848;8.924;2023-04-01T01:51:21;96022.06;;;19.25;100.00
8697;BME280;4385;48.848;8.924;2023-04-01T01:53:48;96018.63;;;19.26;100.00
8697;BME280;4385;48.848;8.924;2023-04-01T01:56:13;96014.34;;;19.26;100.00
8697;BME280;4385;48.848;8.924;2023-04-01T01:58:54;96012.69;;;19.25;100.00
8697;BME280;4385;48.848;8.924;2023-04-01T02:01:24;96011.88;;;19.25;100.00
8697;BME280;4385;48.848;8.924;2023-04-01T02:03:51;96010.22;;;19.24;100.00
8697;BME280;4385;48.848;8.924;2023-04-01T02:06:20;96016.28;;;19.21;100.00
8697;BME280;4385;48.848;8.924;2023-04-01T02:08:56;96022.16;;;19.23;100.00
8697;BME280;4385;48.848;8.924;2023-04-01T02:11:45;96018.09;;;19.19;100.00
8697;BME280;4385;48.848;8.924;2023-04-01T02:14:21;95999.47;;;19.17;100.00
8697;BME280;4385;48.848;8.924;2023-04-01T02:16:51;96008.03;;;19.16;100.00
8697;BME280;4385;48.848;8.924;2023-04-01T02:19:21;96005.56;;;19.14;100.00
8697;BME280;4385;48.848;8.924;2023-04-01T02:21:53;96002.19;;;19.14;100.00
8697;BME280;4385;48.848;8.924;2023-04-01T02:24:21;96007.44;;;19.11;100.00
8697;BME280;4385;48.848;8.924;2023-04-01T02:26:50;96005.78;;;19.10;100.00
8697;BME280;4385;48.848;8.924;2023-04-01T02:29:18;96004.16;;;19.07;100.00
8697;BME280;4385;48.848;8.924;2023-04-01T02:31:45;96010.91;;;19.10;100.00
8697;BME280;4385;48.848;8.924;2023-04-01T02:34:10;96009.97;;;19.11;100.00
8697;BME280;4385;48.848;8.924;2023-04-01T02:36:36;96011.63;;;19.12;100.00
8697;BME280;4385;48.848;8.924;2023-04-01T02:39:03;96013.31;;;19.13;100.00
8697;BME280;4385;48.848;8.924;2023-04-01T02:41:30;96017.97;;;19.22;100.00
8697;BME280;4385;48.848;8.924;2023-04-01T02:43:55;96021.16;;;19.26;100.00
8697;BME280;4385;48.848;8.924;2023-04-01T02:46:23;96021.09;;;19.27;100.00
8697;BME280;4385;48.848;8.924;2023-04-01T02:48:48;96014.34;;;19.26;100.00
8697;BME280;4385;48.848;8.924;2023-04-01T02:51:14;96009.25;;;19.26;100.00
8697;BME280;4385;48.848;8.924;2023-04-01T02:53:39;96014.34;;;19.26;100.00
8697;BME280;4385;48.848;8.924;2023-04-01T02:56:04;96005.94;;;19.24;100.00
8697;BME280;4385;48.848;8.924;2023-04-01T02:58:30;96003.09;;;19.13;100.00
8697;BME280;4385;48.848;8.924;2023-04-01T03:00:55;96016.00;;;19.10;100.00
8697;BME280;4385;48.848;8.924;2023-04-01T03:03:21;96015.22;;;19.07;100.00
8697;BME280;4385;48.848;8.924;2023-04-01T03:05:46;96015.28;;;19.06;100.00
8697;BME280;4385;48.848;8.924;2023-04-01T03:08:11;96017.00;;;19.05;100.00
8697;BME280;4385;48.848;8.924;2023-04-01T03:10:37;96034.13;;;19.03;100.00
8697;BME280;4385;48.848;8.924;2023-04-01T03:13:02;96010.41;;;19.01;100.00
8697;BME280;4385;48.848;8.924;2023-04-01T03:15:27;96007.00;;;19.01;100.00
8697;BME280;4385;48.848;8.924;2023-04-01T03:17:52;96005.28;;;19.01;100.00
8697;BME280;4385;48.848;8.924;2023-04-01T03:20:18;96009.56;;;19.01;100.00
8697;BME280;4385;48.848;8.924;2023-04-01T03:22:44;96003.72;;;18.99;100.00
8697;BME280;4385;48.848;8.924;2023-04-01T03:25:10;96016.50;;;18.99;100.00
8697;BME280;4385;48.848;8.924;2023-04-01T03:27:36;96013.84;;;19.00;100.00
8697;BME280;4385;48.848;8.924;2023-04-01T03:30:03;96001.91;;;19.01;100.00
8697;BME280;4385;48.848;8.924;2023-04-01T03:32:29;96005.28;;;19.01;100.00
8697;BME280;4385;48.848;8.924;2023-04-01T03:34:55;96006.94;;;19.02;100.00
8697;BME280;4385;48.848;8.924;2023-04-01T03:37:20;95999.19;;;19.04;100.00
8697;BME280;4385;48.848;8.924;2023-04-01T03:39:46;96003.34;;;19.06;100.00
8697;BME280;4385;48.848;8.924;2023-04-01T03:42:11;96003.44;;;19.05;100.00
8697;BME280;4385;48.848;8.924;2023-04-01T03:44:37;95998.41;;;19.03;100.00
8697;BME280;4385;48.848;8.924;2023-04-01T03:47:02;95995.09;;;19.01;100.00
8697;BME280;4385;48.848;8.924;2023-04-01T03:49:28;95996.78;;;19.01;100.00
8697;BME280;4385;48.848;8.924;2023-04-01T03:51:54;96000.19;;;19.01;100.00
8697;BME280;4385;48.848;8.924;2023-04-01T03:54:19;95992.59;;;19.00;100.00
8697;BME280;4385;48.848;8.924;2023-04-01T03:56:45;95994.31;;;18.99;100.00
8697;BME280;4385;48.848;8.924;2023-04-01T03:59:11;95994.25;;;19.01;100.00
8697;BME280;4385;48.848;8.924;2023-04-01T04:01:36;95993.50;;;18.99;100.00
8697;BME280;4385;48.848;8.924;2023-04-01T04:04:02;95988.47;;;18.97;100.00
8697;BME280;4385;48.848;8.924;2023-04-01T04:06:28;95985.94;;;18.97;100.00
8697;BME280;4385;48.848;8.924;2023-04-01T04:08:53;95979.22;;;18.94;100.00
8697;BME280;4385;48.848;8.924;2023-04-01T04:11:19;95986.97;;;18.93;100.00
8697;BME280;4385;48.848;8.924;2023-04-01T04:13:45;95986.16;;;18.92;100.00
8697;BME280;4385;48.848;8.924;2023-04-01T04:16:11;95983.59;;;18.92;100.00
8697;BME280;4385;48.848;8.924;2023-04-01T04:18:36;95982.75;;;18.92;100.00
8697;BME280;4385;48.848;8.924;2023-04-01T04:21:02;95973.47;;;18.91;100.00
8697;BME280;4385;48.848;8.924;2023-04-01T04:23:28;95981.94;;;18.91;100.00
8697;BME280;4385;48.848;8.924;2023-04-01T04:25:59;95990.41;;;18.92;100.00
8697;BME280;4385;48.848;8.924;2023-04-01T04:28:26;95981.03;;;18.92;100.00
8697;BME280;4385;48.848;8.924;2023-04-01T04:30:52;95983.53;;;18.94;100.00
8697;BME280;4385;48.848;8.924;2023-04-01T04:33:17;95980.97;;;18.94;100.00
8697;BME280;4385;48.848;8.924;2023-04-01T04:35:43;95980.06;;;18.95;100.00
8697;BME280;4385;48.848;8.924;2023-04-01T04:38:08;95977.44;;;18.97;100.00
8697;BME280;4385;48.848;8.924;2023-04-01T04:40:36;95979.00;;;18.99;100.00
8697;BME280;4385;48.848;8.924;2023-04-01T04:43:02;95974.81;;;18.98;100.00
8697;BME280;4385;48.848;8.924;2023-04-01T04:45:27;95979.91;;;18.98;100.00
8697;BME280;4385;48.848;8.924;2023-04-01T04:47:53;95973.16;;;18.97;100.00
8697;BME280;4385;48.848;8.924;2023-04-01T04:50:18;95974.03;;;18.96;100.00
8697;BME280;4385;48.848;8.924;2023-04-01T04:52:43;95981.72;;;18.96;100.00
8697;BME280;4385;48.848;8.924;2023-04-01T04:55:08;95976.59;;;18.96;100.00
8697;BME280;4385;48.848;8.924;2023-04-01T04:57:34;95974.97;;;18.95;100.00
8697;BME280;4385;48.848;8.924;2023-04-01T04:59:59;95974.97;;;18.95;100.00
8697;BME280;4385;48.848;8.924;2023-04-01T05:02:25;95973.31;;;18.94;100.00
8697;BME280;4385;48.848;8.924;2023-04-01T05:04:50;95968.22;;;18.94;100.00
8697;BME280;4385;48.848;8.924;2023-04-01T05:07:15;95966.63;;;18.91;100.00
8697;BME280;4385;48.848;8.924;2023-04-01T05:09:40;95970.00;;;18.92;100.00
8697;BME280;4385;48.848;8.924;2023-04-01T05:12:06;95970.00;;;18.92;100.00
8697;BME280;4385;48.848;8.924;2023-04-01T05:14:31;95969.16;;;18.91;100.00
8697;BME280;4385;48.848;8.924;2023-04-01T05:16:56;95983.66;;;18.91;100.00
8697;BME280;4385;48.848;8.924;2023-04-01T05:19:21;95985.31;;;18.92;100.00
8697;BME280;4385;48.848;8.924;2023-04-01T05:21:47;95979.38;;;18.91;100.00
8697;BME280;4385;48.848;8.924;2023-04-01T05:24:12;95974.19;;;18.93;100.00
8697;BME280;4385;48.848;8.924;2023-04-01T05:26:37;95968.22;;;18.94;100.00
8697;BME280;4385;48.848;8.924;2023-04-01T05:29:04;95964.59;;;18.98;100.00
8697;BME280;4385;48.848;8.924;2023-04-01T05:31:29;95957.63;;;19.02;100.00
8697;BME280;4385;48.848;8.924;2023-04-01T05:33:55;95955.72;;;19.05;100.00
8697;BME280;4385;48.848;8.924;2023-04-01T05:36:21;95948.84;;;19.07;100.00
8697;BME280;4385;48.848;8.924;2023-04-01T05:38:46;95950.50;;;19.09;100.00
8697;BME280;4385;48.848;8.924;2023-04-01T05:41:12;95947.88;;;19.10;100.00
8697;BME280;4385;48.848;8.924;2023-04-01T05:43:39;95949.56;;;19.11;100.00
8697;BME280;4385;48.848;8.924;2023-04-01T05:46:05;95955.47;;;19.12;100.00
8697;BME280;4385;48.848;8.924;2023-04-01T05:48:30;95957.22;;;19.11;100.00
8697;BME280;4385;48.848;8.924;2023-04-01T05:50:56;95960.56;;;19.12;100.00
8697;BME280;4385;48.848;8.924;2023-04-01T05:53:21;95958.91;;;19.11;100.00
8697;BME280;4385;48.848;8.924;2023-04-01T05:55:47;95953.81;;;19.11;100.00
8697;BME280;4385;48.848;8.924;2023-04-01T05:58:12;95953.91;;;19.09;100.00
8697;BME280;4385;48.848;8.924;2023-04-01T06:00:38;95962.44;;;19.08;100.00
8697;BME280;4385;48.848;8.924;2023-04-01T06:03:03;95956.56;;;19.06;100.00
8697;BME280;4385;48.848;8.924;2023-04-01T06:05:30;95956.63;;;19.04;100.00
8697;BME280;4385;48.848;8.924;2023-04-01T06:08:10;95960.09;;;19.03;100.00
8697;BME280;4385;48.848;8.924;2023-04-01T06:14:03;95959.34;;;19.01;100.00
8697;BME280;4385;48.848;8.924;2023-04-01T06:22:17;95960.84;;;19.05;100.00
8697;BME280;4385;48.848;8.924;2023-04-01T06:27:42;95963.88;;;19.14;100.00
8697;BME280;4385;48.848;8.924;2023-04-01T06:33:35;95970.41;;;19.19;100.00
8697;BME280;4385;48.848;8.924;2023-04-01T06:42:06;95966.81;;;19.24;100.00
8697;BME280;4385;48.848;8.924;2023-04-01T06:47:07;95971.09;;;19.23;100.00
8697;BME280;4385;48.848;8.924;2023-04-01T06:55:37;95972.81;;;19.23;100.00
8697;BME280;4385;48.848;8.924;2023-04-01T06:58:13;95972.00;;;19.22;100.00
8697;BME280;4385;48.848;8.924;2023-04-01T07:00:46;95969.44;;;19.22;100.00
8697;BME280;4385;48.848;8.924;2023-04-01T07:03:18;95966.88;;;19.22;100.00
8697;BME280;4385;48.848;8.924;2023-04-01T07:05:45;95970.31;;;19.21;100.00
8697;BME280;4385;48.848;8.924;2023-04-01T07:08:16;95969.59;;;19.19;100.00
8697;BME280;4385;48.848;8.924;2023-04-01T07:11:05;95973.94;;;19.17;100.00
8697;BME280;4385;48.848;8.924;2023-04-01T07:13:59;95974.84;;;19.16;100.00
8697;BME280;4385;48.848;8.924;2023-04-01T07:16:42;95977.41;;;19.16;100.00
8697;BME280;4385;48.848;8.924;2023-04-01T07:19:12;95972.31;;;19.16;100.00
8697;BME280;4385;48.848;8.924;2023-04-01T07:21:46;95976.50;;;19.17;100.00
8697;BME280;4385;48.848;8.924;2023-04-01T07:24:23;95975.59;;;19.18;100.00
8697;BME280;4385;48.848;8.924;2023-04-01T07:26:54;95982.38;;;19.19;100.00
8697;BME280;4385;48.848;8.924;2023-04-01T07:29:20;95989.03;;;19.22;100.00
8697;BME280;4385;48.848;8.924;2023-04-01T07:37:14;95987.97;;;19.26;100.00
8697;BME280;4385;48.848;8.924;2023-04-01T07:39:53;95981.91;;;19.28;100.00
8697;BME280;4385;48.848;8.924;2023-04-01T07:45:40;95993.63;;;19.33;100.00
8697;BME280;4385;48.848;8.924;2023-04-01T07:57:22;95994.59;;;19.30;100.00
8697;BME280;4385;48.848;8.924;2023-04-01T08:02:49;95994.75;;;19.27;100.00
8697;BME280;4385;48.848;8.924;2023-04-01T08:05:28;95996.53;;;19.25;100.00
8697;BME280;4385;48.848;8.924;2023-04-01T08:10:48;96000.75;;;19.26;100.00
8697;BME280;4385;48.848;8.924;2023-04-01T08:15:59;95996.53;;;19.25;100.00
8697;BME280;4385;48.848;8.924;2023-04-01T08:21:03;96000.75;;;19.26;100.00
8697;BME280;4385;48.848;8.924;2023-04-01T08:23:37;96005.78;;;19.27;100.00
8697;BME280;4385;48.848;8.924;2023-04-01T08:28:54;96020.28;;;19.27;100.00
8697;BME280;4385;48.848;8.924;2023-04-01T08:31:45;96009.31;;;19.25;100.00
8697;BME280;4385;48.848;8.924;2023-04-01T08:34:21;96012.69;;;19.25;100.00
8697;BME280;4385;48.848;8.924;2023-04-01T08:37:14;96009.25;;;19.26;100.00
8697;BME280;4385;48.848;8.924;2023-04-01T08:39:50;96006.59;;;19.28;100.00
8697;BME280;4385;48.848;8.924;2023-04-01T08:45:07;96008.78;;;19.36;100.00
8697;BME280;4385;48.848;8.924;2023-04-01T08:50:51;96003.38;;;19.42;100.00
8697;BME280;4385;48.848;8.924;2023-04-01T08:53:55;96002.22;;;19.48;100.00
8697;BME280;4385;48.848;8.924;2023-04-01T08:56:53;95997.81;;;19.51;100.00
8697;BME280;4385;48.848;8.924;2023-04-01T09:05:07;96000.72;;;19.61;100.00
8697;BME280;4385;48.848;8.924;2023-04-01T09:08:08;96002.28;;;19.64;100.00
8697;BME280;4385;48.848;8.924;2023-04-01T09:16:30;96001.66;;;19.76;100.00
8697;BME280;4385;48.848;8.924;2023-04-01T09:19:14;96007.47;;;19.80;100.00
8697;BME280;4385;48.848;8.924;2023-04-01T09:22:09;96007.38;;;19.81;100.00
8697;BME280;4385;48.848;8.924;2023-04-01T09:27:27;96015.69;;;19.85;100.00
8697;BME280;4385;48.848;8.924;2023-04-01T09:32:48;96010.25;;;19.91;100.00
8697;BME280;4385;48.848;8.924;2023-04-01T09:35:48;96017.84;;;19.93;100.00
8697;BME280;4385;48.848;8.924;2023-04-01T09:43:39;96030.19;;;20.02;100.00
8697;BME280;4385;48.848;8.924;2023-04-01T09:49:26;96024.03;;;20.06;100.00
8697;BME280;4385;48.848;8.924;2023-04-01T09:52:13;96029.88;;;20.09;100.00
8697;BME280;4385;48.848;8.924;2023-04-01T09:54:53;96025.50;;;20.11;100.00
8697;BME280;4385;48.848;8.924;2023-04-01T10:00:28;96023.56;;;20.16;100.00
8697;BME280;4385;48.848;8.924;2023-04-01T10:03:19;96019.25;;;20.16;100.00
8697;BME280;4385;48.848;8.924;2023-04-01T10:11:40;96028.66;;;20.16;100.00
8697;BME280;4385;48.848;8.924;2023-04-01T10:14:29;96036.34;;;20.16;100.00
8697;BME280;4385;48.848;8.924;2023-04-01T10:25:57;96038.56;;;20.22;100.00
8697;BME280;4385;48.848;8.924;2023-04-01T10:29:02;96041.13;;;20.22;100.00
8697;BME280;4385;48.848;8.924;2023-04-01T10:34:37;96040.22;;;20.23;100.00
8697;BME280;4385;48.848;8.924;2023-04-01T10:37:23;96044.50;;;20.23;100.00
8697;BME280;4385;48.848;8.924;2023-04-01T10:48:21;96045.81;;;20.14;100.00
8697;BME280;4385;48.848;8.924;2023-04-01T10:51:17;96042.66;;;20.09;100.00
8697;BME280;4385;48.848;8.924;2023-04-01T11:18:48;96055.16;;;19.97;100.00
8697;BME280;4385;48.848;8.924;2023-04-01T11:21:58;96046.56;;;19.98;100.00
8697;BME280;4385;48.848;8.924;2023-04-01T11:24:46;96045.56;;;20.01;100.00
8697;BME280;4385;48.848;8.924;2023-04-01T11:33:20;96056.19;;;20.11;100.00
8697;BME280;4385;48.848;8.924;2023-04-01T11:39:00;96055.97;;;20.15;100.00
8697;BME280;4385;48.848;8.924;2023-04-01T11:41:45;96069.44;;;20.19;100.00
8697;BME280;4385;48.848;8.924;2023-04-01T11:44:17;96063.41;;;20.20;100.00
8697;BME280;4385;48.848;8.924;2023-04-01T11:46:56;96064.22;;;20.21;100.00
8697;BME280;4385;48.848;8.924;2023-04-01T11:49:37;96061.66;;;20.21;100.00
8697;BME280;4385;48.848;8.924;2023-04-01T11:52:30;96073.63;;;20.20;100.00
8697;BME280;4385;48.848;8.924;2023-04-01T11:55:14;96069.44;;;20.19;100.00
8697;BME280;4385;48.848;8.924;2023-04-01T11:59:05;96081.44;;;20.17;100.00
8697;BME280;4385;48.848;8.924;2023-04-01T12:06:32;96089.38;;;20.12;100.00
8697;BME280;4385;48.848;8.924;2023-04-01T12:09:23;96085.25;;;20.10;100.00
8697;BME280;4385;48.848;8.924;2023-04-01T12:12:15;96088.84;;;20.05;100.00
8697;BME280;4385;48.848;8.924;2023-04-01T12:15:00;96091.41;;;20.05;100.00
8697;BME280;4385;48.848;8.924;2023-04-01T12:17:34;96087.19;;;20.04;100.00
8697;BME280;4385;48.848;8.924;2023-04-01T12:20:22;96085.56;;;20.03;100.00
8697;BME280;4385;48.848;8.924;2023-04-01T12:26:06;96093.16;;;20.05;100.00
8697;BME280;4385;48.848;8.924;2023-04-01T12:34:41;96087.94;;;20.06;100.00
8697;BME280;4385;48.848;8.924;2023-04-01T12:37:25;96098.19;;;20.06;100.00
8697;BME280;4385;48.848;8.924;2023-04-01T12:40:02;96095.63;;;20.06;100.00
8697;BME280;4385;48.848;8.924;2023-04-01T12:42:52;96093.88;;;20.07;100.00
8697;BME280;4385;48.848;8.924;2023-04-01T12:45:38;96107.50;;;20.08;100.00
8697;BME280;4385;48.848;8.924;2023-04-01T12:48:27;96106.59;;;20.09;100.00
8697;BME280;4385;48.848;8.924;2023-04-01T13:11:02;96117.81;;;20.06;100.00
8697;BME280;4385;48.848;8.924;2023-04-01T13:16:29;96116.81;;;20.09;100.00
8697;BME280;4385;48.848;8.924;2023-04-01T13:19:22;96118.47;;;20.10;100.00
8697;BME280;4385;48.848;8.924;2023-04-01T13:21:57;96118.47;;;20.10;100.00
8697;BME280;4385;48.848;8.924;2023-04-01T13:24:59;96126.00;;;20.13;100.00
8697;BME280;4385;48.848;8.924;2023-04-01T13:27:30;96125.16;;;20.12;100.00
8697;BME280;4385;48.848;8.924;2023-04-01T13:30:17;96124.16;;;20.15;100.00
8697;BME280;4385;48.848;8.924;2023-04-01T13:32:54;96135.16;;;20.17;100.00
8697;BME280;4385;48.848;8.924;2023-04-01T13:43:49;96141.09;;;20.17;100.00
8697;BME280;4385;48.848;8.924;2023-04-01T13:47:21;96142.00;;;20.16;100.00
8697;BME280;4385;48.848;8.924;2023-04-01T13:49:30;96140.28;;;20.17;100.00
8697;BME280;4385;48.848;8.924;2023-04-01T14:00:19;96150.19;;;20.05;100.00
8697;BME280;4385;48.848;8.924;2023-04-01T14:05:53;96149.59;;;20.00;100.00
8697;BME280;4385;48.848;8.924;2023-04-01T14:08:52;96148.06;;;19.96;100.00
8697;BME280;4385;48.848;8.924;2023-04-01T14:11:40;96144.88;;;19.92;100.00
8697;BME280;4385;48.848;8.924;2023-04-01T14:17:10;96148.47;;;19.88;100.00
8697;BME280;4385;48.848;8.924;2023-04-01T14:23:13;96147.81;;;19.85;100.00
8697;BME280;4385;48.848;8.924;2023-04-01T14:28:32;96153.88;;;19.82;100.00
8697;BME280;4385;48.848;8.924;2023-04-01T14:39:45;96161.38;;;19.85;100.00
8697;BME280;4385;48.848;8.924;2023-04-01T14:45:02;96156.34;;;19.84;100.00
8697;BME280;4385;48.848;8.924;2023-04-01T14:52:38;96175.22;;;19.81;100.00
8697;BME280;4385;48.848;8.924;2023-04-01T14:55:20;96172.75;;;19.79;100.00
8697;BME280;4385;48.848;8.924;2023-04-01T14:57:59;96172.81;;;19.78;100.00
8697;BME280;4385;48.848;8.924;2023-04-01T15:00:25;96163.59;;;19.75;100.00
8697;BME280;4385;48.848;8.924;2023-04-01T15:03:15;96173.03;;;19.73;100.00
8697;BME280;4385;48.848;8.924;2023-04-01T15:05:50;96171.47;;;19.71;100.00
8697;BME280;4385;48.848;8.924;2023-04-01T15:08:20;96173.34;;;19.67;100.00
8697;BME280;4385;48.848;8.924;2023-04-01T15:13:57;96174.41;;;19.63;100.00
8697;BME280;4385;48.848;8.924;2023-04-01T15:19:40;96170.84;;;19.65;100.00
8697;BME280;4385;48.848;8.924;2023-04-01T15:22:37;96173.34;;;19.67;100.00
8697;BME280;4385;48.848;8.924;2023-04-01T15:28:28;96187.75;;;19.68;100.00
8697;BME280;4385;48.848;8.924;2023-04-01T15:33:46;96186.81;;;19.71;100.00
8697;BME280;4385;48.848;8.924;2023-04-01T15:36:33;96195.28;;;19.71;100.00
8697;BME280;4385;48.848;8.924;2023-04-01T15:39:21;96192.66;;;19.73;100.00
8697;BME280;4385;48.848;8.924;2023-04-01T15:52:46;96191.78;;;19.74;100.00
8697;BME280;4385;48.848;8.924;2023-04-01T16:06:13;96189.59;;;19.66;100.00
8697;BME280;4385;48.848;8.924;2023-04-01T16:14:38;96200.09;;;19.60;100.00
8697;BME280;4385;48.848;8.924;2023-04-01T16:19:56;96208.34;;;19.65;100.00
8697;BME280;4385;48.848;8.924;2023-04-01T16:22:37;96204.06;;;19.65;100.00
8697;BME280;4385;48.848;8.924;2023-04-01T16:25:31;96204.91;;;19.66;100.00
8697;BME280;4385;48.848;8.924;2023-04-01T16:28:30;96215.00;;;19.69;100.00
8697;BME280;4385;48.848;8.924;2023-04-01T16:31:03;96218.13;;;19.74;100.00
8697;BME280;4385;48.848;8.924;2023-04-01T16:33:55;96215.44;;;19.77;100.00
8697;BME280;4385;48.848;8.924;2023-04-01T16:36:36;96214.47;;;19.80;100.00
8697;BME280;4385;48.848;8.924;2023-04-01T16:44:31;96209.94;;;19.85;100.00
8697;BME280;4385;48.848;8.924;2023-04-01T16:47:12;96210.78;;;19.86;100.00
8697;BME280;4385;48.848;8.924;2023-04-01T16:49:47;96207.41;;;19.85;100.00
8697;BME280;4385;48.848;8.924;2023-04-01T16:52:17;96210.78;;;19.86;100.00
8697;BME280;4385;48.848;8.924;2023-04-01T16:55:12;96207.47;;;19.84;100.00
8697;BME280;4385;48.848;8.924;2023-04-01T16:57:56;96210.94;;;19.83;100.00
8697;BME280;4385;48.848;8.924;2023-04-01T17:00:38;96212.66;;;19.82;100.00
8697;BME280;4385;48.848;8.924;2023-04-01T17:03:20;96220.41;;;19.80;100.00
8697;BME280;4385;48.848;8.924;2023-04-01T17:05:54;96225.59;;;19.79;100.00
8697;BME280;4385;48.848;8.924;2023-04-01T17:11:21;96237.41;;;19.81;100.00
8697;BME280;4385;48.848;8.924;2023-04-01T17:16:50;96246.25;;;19.74;100.00
8697;BME280;4385;48.848;8.924;2023-04-01T17:27:21;96276.59;;;19.63;100.00
8697;BME280;4385;48.848;8.924;2023-04-01T17:35:33;96283.66;;;19.58;100.00
8697;BME280;4385;48.848;8.924;2023-04-01T17:43:59;96314.44;;;19.54;100.00
8697;BME280;4385;48.848;8.924;2023-04-01T17:49:33;96314.59;;;19.51;100.00
8697;BME280;4385;48.848;8.924;2023-04-01T17:52:27;96314.72;;;19.48;100.00
8697;BME280;4385;48.848;8.924;2023-04-01T17:57:42;96308.09;;;19.44;100.00
8697;BME280;4385;48.848;8.924;2023-04-01T18:03:14;96317.63;;;19.40;100.00
8697;BME280;4385;48.848;8.924;2023-04-01T18:08:38;96310.88;;;19.39;100.00
8697;BME280;4385;48.848;8.924;2023-04-01T18:19:44;96317.06;;;19.53;100.00
8697;BME280;4385;48.848;8.924;2023-04-01T18:22:28;96317.78;;;19.56;100.00
8697;BME280;4385;48.848;8.924;2023-04-01T18:30:39;96322.59;;;19.63;100.00
8697;BME280;4385;48.848;8.924;2023-04-01T18:33:17;96322.47;;;19.66;100.00
8697;BME280;4385;48.848;8.924;2023-04-01T18:35:53;96330.13;;;19.66;100.00
8697;BME280;4385;48.848;8.924;2023-04-01T18:38:31;96334.41;;;19.65;100.00
8697;BME280;4385;48.848;8.924;2023-04-01T18:41:25;96336.13;;;19.65;100.00
8697;BME280;4385;48.848;8.924;2023-04-01T18:46:58;96353.25;;;19.63;100.00
8697;BME280;4385;48.848;8.924;2023-04-01T18:49:52;96361.00;;;19.61;100.00
8697;BME280;4385;48.848;8.924;2023-04-01T18:52:39;96357.69;;;19.59;100.00
8697;BME280;4385;48.848;8.924;2023-04-01T19:00:28;96365.34;;;19.59;100.00
8697;BME280;4385;48.848;8.924;2023-04-01T19:03:02;96369.63;;;19.59;100.00
8697;BME280;4385;48.848;8.924;2023-04-01T19:05:33;96367.06;;;19.59;100.00
8697;BME280;4385;48.848;8.924;2023-04-01T19:10:53;96362.94;;;19.56;100.00
8697;BME280;4385;48.848;8.924;2023-04-01T19:24:46;96368.44;;;19.47;100.00
8697;BME280;4385;48.848;8.924;2023-04-01T19:27:29;96372.72;;;19.46;100.00
8697;BME280;4385;48.848;8.924;2023-04-01T19:32:47;96375.44;;;19.62;100.00
8697;BME280;4385;48.848;8.924;2023-04-01T19:35:42;96382.13;;;19.65;100.00
8697;BME280;4385;48.848;8.924;2023-04-01T19:39:00;96376.13;;;19.66;100.00
8697;BME280;4385;48.848;8.924;2023-04-01T19:41:30;96376.06;;;19.67;100.00
8697;BME280;4385;48.848;8.924;2023-04-01T19:46:59;96382.75;;;19.70;100.00
8697;BME280;4385;48.848;8.924;2023-04-01T19:49:58;96387.09;;;19.68;100.00
8697;BME280;4385;48.848;8.924;2023-04-01T19:52:39;96389.66;;;19.68;100.00
8697;BME280;4385;48.848;8.924;2023-04-01T19:55:44;96381.97;;;19.68;100.00
8697;BME280;4385;48.848;8.924;2023-04-01T20:00:58;96388.91;;;19.66;100.00
8697;BME280;4385;48.848;8.924;2023-04-01T20:03:54;96385.66;;;19.62;100.00
8697;BME280;4385;48.848;8.924;2023-04-01T20:06:33;96389.09;;;19.61;100.00